Time,TemperatureF,DewpointF,PressureIn,WindDirection,WindDirectionDegrees,WindSpeedMPH,WindSpeedGustMPH,Humidity,HourlyPrecipIn,Conditions,Clouds,dailyrainin,SoftwareType,DateUTC
2013-06-05 00:07:00,50.0,47.2,30.10,ESE,112,0.0,-999.0,90,-99.99,,,0.00,Acu-Link.com,2013-06-05 04:07:00,
2013-06-05 00:22:00,49.6,47.4,30.10,ESE,112,0.0,-999.0,92,-99.99,,,0.00,Acu-Link.com,2013-06-05 04:22:00,
2013-06-05 00:37:00,49.1,47.4,30.11,WNW,292,1.1,-999.0,94,-99.99,,,0.00,Acu-Link.com,2013-06-05 04:37:00,
2013-06-05 00:52:00,49.1,47.4,30.10,SE,135,0.0,-999.0,94,-99.99,,,0.00,Acu-Link.com,2013-06-05 04:52:00,
2013-06-05 01:08:00,48.7,47.3,30.10,South,180,0.0,-999.0,95,-99.99,,,0.00,Acu-Link.com,2013-06-05 05:08:00,
2013-06-05 01:23:00,48.4,47.0,30.10,SSW,202,0.0,-999.0,95,-99.99,,,0.00,Acu-Link.com,2013-06-05 05:23:00,
2013-06-05 01:38:00,47.7,46.3,30.11,ESE,112,0.0,-999.0,95,-99.99,,,0.00,Acu-Link.com,2013-06-05 05:38:00,
2013-06-05 01:54:00,48.0,47.2,30.11,SSE,157,0.0,-999.0,97,-99.99,,,0.00,Acu-Link.com,2013-06-05 05:54:00,
2013-06-05 02:09:00,47.1,46.6,30.11,East,90,0.0,-999.0,98,-99.99,,,0.00,Acu-Link.com,2013-06-05 06:09:00,
2013-06-05 02:24:00,47.1,46.8,30.11,ESE,112,0.0,-999.0,99,-99.99,,,0.00,Acu-Link.com,2013-06-05 06:24:00,
2013-06-05 02:40:00,46.9,46.6,30.11,ESE,112,0.0,-999.0,99,-99.99,,,0.00,Acu-Link.com,2013-06-05 06:40:00,
2013-06-05 02:55:00,46.9,46.6,30.11,SE,135,0.0,-999.0,99,-99.99,,,0.00,Acu-Link.com,2013-06-05 06:55:00,
2013-06-05 03:10:00,46.8,46.5,30.11,SSE,157,0.0,-999.0,99,-99.99,,,0.00,Acu-Link.com,2013-06-05 07:10:00,
2013-06-05 03:26:00,46.8,46.5,30.11,ESE,112,0.0,-999.0,99,-99.99,,,0.00,Acu-Link.com,2013-06-05 07:26:00,
2013-06-05 03:41:00,46.4,46.1,30.11,NW,315,0.0,-999.0,99,-99.99,,,0.00,Acu-Link.com,2013-06-05 07:41:00,
2013-06-05 04:12:00,47.3,47.0,30.10,SE,135,0.0,-999.0,99,-99.99,,,0.00,Acu-Link.com,2013-06-05 08:12:00,
2013-06-05 04:27:00,47.7,47.4,30.11,ESE,112,0.0,-999.0,99,-99.99,,,0.00,Acu-Link.com,2013-06-05 08:27:00,
2013-06-05 04:42:00,48.4,48.1,30.11,SSE,157,0.0,-999.0,99,-99.99,,,0.00,Acu-Link.com,2013-06-05 08:42:00,
2013-06-05 04:57:00,48.6,48.3,30.12,SW,225,0.0,-999.0,99,-99.99,,,0.00,Acu-Link.com,2013-06-05 08:57:00,
2013-06-05 05:13:00,48.7,48.4,30.11,SE,135,0.0,-999.0,99,-99.99,,,0.00,Acu-Link.com,2013-06-05 09:13:00,
2013-06-05 05:28:00,49.3,49.0,30.12,SE,135,0.0,-999.0,99,-99.99,,,0.00,Acu-Link.com,2013-06-05 09:28:00,
2013-06-05 05:43:00,49.3,49.0,30.12,SW,225,0.0,-999.0,99,-99.99,,,0.00,Acu-Link.com,2013-06-05 09:43:00,
2013-06-05 05:58:00,49.6,49.3,30.12,SE,135,0.0,-999.0,99,-99.99,,,0.00,Acu-Link.com,2013-06-05 09:58:00,
2013-06-05 06:14:00,49.8,49.5,30.12,ESE,112,0.0,-999.0,99,-99.99,,,0.00,Acu-Link.com,2013-06-05 10:14:00,
2013-06-05 06:29:00,50.4,49.9,30.13,SW,225,0.0,-999.0,98,-99.99,,,0.00,Acu-Link.com,2013-06-05 10:29:00,
2013-06-05 06:44:00,51.1,50.6,30.13,SSE,157,0.0,-999.0,98,-99.99,,,0.00,Acu-Link.com,2013-06-05 10:44:00,
2013-06-05 07:00:00,51.3,49.6,30.13,SSE,157,1.7,-999.0,94,-99.99,,,0.00,Acu-Link.com,2013-06-05 11:00:00,
2013-06-05 07:15:00,51.6,49.9,30.14,SE,135,0.0,-999.0,94,-99.99,,,0.00,Acu-Link.com,2013-06-05 11:15:00,
2013-06-05 07:30:00,52.3,50.3,30.14,SSW,202,0.0,-999.0,93,-99.99,,,0.00,Acu-Link.com,2013-06-05 11:30:00,
2013-06-05 07:46:00,52.9,50.0,30.14,ESE,112,2.2,-999.0,90,-99.99,,,0.00,Acu-Link.com,2013-06-05 11:46:00,
2013-06-05 08:01:00,53.1,49.9,30.14,SE,135,1.7,-999.0,89,-99.99,,,0.00,Acu-Link.com,2013-06-05 12:01:00,
2013-06-05 08:16:00,53.8,48.8,30.14,SSE,157,0.0,-999.0,83,-99.99,,,0.00,Acu-Link.com,2013-06-05 12:16:00,
2013-06-05 08:31:00,54.7,49.0,30.15,East,90,0.0,-999.0,81,-99.99,,,0.00,Acu-Link.com,2013-06-05 12:31:00,
2013-06-05 08:47:00,55.9,46.3,30.15,ESE,112,2.2,-999.0,70,-99.99,,,0.00,Acu-Link.com,2013-06-05 12:47:00,
2013-06-05 09:02:00,56.7,47.8,30.15,SSW,202,0.0,-999.0,72,-99.99,,,0.00,Acu-Link.com,2013-06-05 13:02:00,
2013-06-05 09:18:00,57.4,47.7,30.15,SSE,157,3.7,-999.0,70,-99.99,,,0.00,Acu-Link.com,2013-06-05 13:18:00,
2013-06-05 09:33:00,57.7,48.0,30.14,South,180,3.7,-999.0,70,-99.99,,,0.00,Acu-Link.com,2013-06-05 13:33:00,
2013-06-05 09:48:00,59.2,48.6,30.13,ESE,112,3.2,-999.0,68,-99.99,,,0.00,Acu-Link.com,2013-06-05 13:48:00,
2013-06-05 10:03:00,59.9,48.5,30.13,SSE,157,2.7,-999.0,66,-99.99,,,0.00,Acu-Link.com,2013-06-05 14:03:00,
2013-06-05 10:19:00,61.3,48.2,30.13,ENE,67,0.0,-999.0,62,-99.99,,,0.00,Acu-Link.com,2013-06-05 14:19:00,
2013-06-05 10:34:00,62.1,49.4,30.14,East,90,1.7,-999.0,63,-99.99,,,0.00,Acu-Link.com,2013-06-05 14:34:00,
2013-06-05 10:49:00,61.2,49.7,30.14,SSE,157,5.3,-999.0,66,-99.99,,,0.00,Acu-Link.com,2013-06-05 14:49:00,
2013-06-05 11:04:00,63.0,51.0,30.14,West,270,1.7,-999.0,65,-99.99,,,0.00,Acu-Link.com,2013-06-05 15:04:00,
2013-06-05 11:20:00,63.7,50.9,30.15,East,90,2.7,-999.0,63,-99.99,,,0.00,Acu-Link.com,2013-06-05 15:20:00,
2013-06-05 11:35:00,63.9,50.6,30.13,ENE,67,2.2,-999.0,62,-99.99,,,0.00,Acu-Link.com,2013-06-05 15:35:00,
2013-06-05 11:50:00,62.1,51.0,30.13,SSE,157,2.2,-999.0,67,-99.99,,,0.00,Acu-Link.com,2013-06-05 15:50:00,
2013-06-05 12:06:00,64.4,50.7,30.12,East,90,2.2,-999.0,61,-99.99,,,0.00,Acu-Link.com,2013-06-05 16:06:00,
2013-06-05 12:36:00,66.2,50.0,30.10,NE,45,2.2,-999.0,56,-99.99,,,0.00,Acu-Link.com,2013-06-05 16:36:00,
2013-06-05 12:51:00,65.3,47.7,30.10,SE,135,4.7,-999.0,53,-99.99,,,0.00,Acu-Link.com,2013-06-05 16:51:00,
2013-06-05 13:22:00,66.9,48.2,30.08,East,90,2.7,-999.0,51,-99.99,,,0.00,Acu-Link.com,2013-06-05 17:22:00,
2013-06-05 13:37:00,67.3,47.5,30.08,SSE,157,4.7,-999.0,49,-99.99,,,0.00,Acu-Link.com,2013-06-05 17:37:00,
2013-06-05 13:52:00,68.0,48.1,30.08,ESE,112,4.2,-999.0,49,-99.99,,,0.00,Acu-Link.com,2013-06-05 17:52:00,
2013-06-05 14:07:00,67.1,49.4,30.06,ESE,112,3.2,-999.0,53,-99.99,,,0.00,Acu-Link.com,2013-06-05 18:07:00,
2013-06-05 14:22:00,68.4,48.5,30.06,ESE,112,7.8,-999.0,49,-99.99,,,0.00,Acu-Link.com,2013-06-05 18:22:00,
2013-06-05 14:37:00,69.4,49.9,30.05,SW,225,6.8,-999.0,50,-99.99,,,0.00,Acu-Link.com,2013-06-05 18:37:00,
2013-06-05 14:52:00,71.4,50.7,30.05,NNE,22,9.4,-999.0,48,-99.99,,,0.00,Acu-Link.com,2013-06-05 18:52:00,
2013-06-05 15:08:00,68.2,47.2,30.06,NE,45,4.2,-999.0,47,-99.99,,,0.00,Acu-Link.com,2013-06-05 19:08:00,
2013-06-05 15:23:00,70.2,49.0,30.05,ENE,67,3.2,-999.0,47,-99.99,,,0.00,Acu-Link.com,2013-06-05 19:23:00,
2013-06-05 15:38:00,70.2,49.0,30.05,ESE,112,3.7,-999.0,47,-99.99,,,0.00,Acu-Link.com,2013-06-05 19:38:00,
2013-06-05 15:53:00,70.9,47.3,30.05,East,90,3.7,-999.0,43,-99.99,,,0.00,Acu-Link.com,2013-06-05 19:53:00,
2013-06-05 16:08:00,72.0,47.6,30.04,ESE,112,3.7,-999.0,42,-99.99,,,0.00,Acu-Link.com,2013-06-05 20:08:00,
2013-06-05 16:24:00,69.4,47.7,30.03,East,90,7.8,-999.0,46,-99.99,,,0.00,Acu-Link.com,2013-06-05 20:24:00,
2013-06-05 16:39:00,70.2,48.4,30.03,ESE,112,4.2,-999.0,46,-99.99,,,0.00,Acu-Link.com,2013-06-05 20:39:00,
2013-06-05 16:54:00,71.1,50.4,30.02,ENE,67,5.3,-999.0,48,-99.99,,,0.00,Acu-Link.com,2013-06-05 20:54:00,
2013-06-05 17:09:00,69.6,48.5,30.01,ESE,112,2.7,-999.0,47,-99.99,,,0.00,Acu-Link.com,2013-06-05 21:09:00,
2013-06-05 17:25:00,70.0,47.1,30.01,East,90,2.7,-999.0,44,-99.99,,,0.00,Acu-Link.com,2013-06-05 21:25:00,
2013-06-05 17:40:00,68.7,47.6,30.01,ESE,112,4.2,-999.0,47,-99.99,,,0.00,Acu-Link.com,2013-06-05 21:40:00,
2013-06-05 17:55:00,68.7,47.6,30.00,East,90,4.7,-999.0,47,-99.99,,,0.00,Acu-Link.com,2013-06-05 21:55:00,
2013-06-05 18:10:00,68.5,48.0,30.00,NNE,22,4.2,-999.0,48,-99.99,,,0.00,Acu-Link.com,2013-06-05 22:10:00,
2013-06-05 18:41:00,66.2,47.5,30.00,East,90,2.7,-999.0,51,-99.99,,,0.00,Acu-Link.com,2013-06-05 22:41:00,
2013-06-05 18:56:00,65.8,46.6,30.00,NNE,22,2.7,-999.0,50,-99.99,,,0.00,Acu-Link.com,2013-06-05 22:56:00,
2013-06-05 19:12:00,65.3,46.7,30.00,NNE,22,6.3,-999.0,51,-99.99,,,0.00,Acu-Link.com,2013-06-05 23:12:00,
2013-06-05 19:27:00,64.4,45.9,30.00,East,90,3.7,-999.0,51,-99.99,,,0.00,Acu-Link.com,2013-06-05 23:27:00,
2013-06-05 19:42:00,63.5,44.5,29.99,NNE,22,2.7,-999.0,50,-99.99,,,0.00,Acu-Link.com,2013-06-05 23:42:00,
2013-06-05 19:58:00,62.6,44.2,29.99,NNE,22,4.2,-999.0,51,-99.99,,,0.00,Acu-Link.com,2013-06-05 23:58:00,
2013-06-05 20:13:00,60.8,43.1,29.98,NE,45,3.2,-999.0,52,-99.99,,,0.00,Acu-Link.com,2013-06-06 00:13:00,
2013-06-05 20:28:00,60.3,43.1,29.99,East,90,3.2,-999.0,53,-99.99,,,0.00,Acu-Link.com,2013-06-06 00:28:00,
2013-06-05 20:44:00,59.5,42.4,29.99,ESE,112,3.2,-999.0,53,-99.99,,,0.00,Acu-Link.com,2013-06-06 00:44:00,
2013-06-05 20:59:00,58.8,42.2,29.98,East,90,1.7,-999.0,54,-99.99,,,0.00,Acu-Link.com,2013-06-06 00:59:00,
2013-06-05 21:14:00,58.3,42.2,29.98,SSE,157,4.7,-999.0,55,-99.99,,,0.00,Acu-Link.com,2013-06-06 01:14:00,
2013-06-05 21:30:00,57.9,42.3,29.98,ESE,112,3.7,-999.0,56,-99.99,,,0.00,Acu-Link.com,2013-06-06 01:30:00,
2013-06-05 21:45:00,57.6,42.5,29.99,ESE,112,3.7,-999.0,57,-99.99,,,0.00,Acu-Link.com,2013-06-06 01:45:00,
2013-06-05 22:00:00,57.4,42.3,29.99,ESE,112,10.4,-999.0,57,-99.99,,,0.00,Acu-Link.com,2013-06-06 02:00:00,
2013-06-05 22:16:00,57.0,42.8,29.99,SSE,157,2.7,-999.0,59,-99.99,,,0.00,Acu-Link.com,2013-06-06 02:16:00,
2013-06-05 22:46:00,57.0,43.3,29.99,NE,45,3.2,-999.0,60,-99.99,,,0.00,Acu-Link.com,2013-06-06 02:46:00,
2013-06-05 23:02:00,57.0,42.4,29.99,SE,135,4.7,-999.0,58,-99.99,,,0.00,Acu-Link.com,2013-06-06 03:02:00,
2013-06-05 23:17:00,57.0,42.4,29.99,ESE,112,4.7,-999.0,58,-99.99,,,0.00,Acu-Link.com,2013-06-06 03:17:00,
2013-06-05 23:32:00,56.8,42.2,29.98,SSE,157,2.7,-999.0,58,-99.99,,,0.00,Acu-Link.com,2013-06-06 03:32:00,
2013-06-05 23:47:00,56.5,41.9,29.98,East,90,2.7,-999.0,58,-99.99,,,0.00,Acu-Link.com,2013-06-06 03:47:00,